Time;durP1;ratioP1;P1;durP2;ratioP2;P2;SDS_P1;SDS_P2;PMS_P1;PMS_P2;Temp;Humidity;BMP_temperature;BMP_pressure;BME280_temperature;BME280_humidity;BME280_pressure;Samples;Min_cycle;Max_cycle;Signal;HPM_P1;HPM_P2
2024/04/15 00:01:58;;;;;;;6.60;4.05;;;10.90;99.90;;;;;;5479550;26;20003;-74
2024/04/15 00:04:24;;;;;;;4.95;4.25;;;10.90;99.90;;;;;;5491004;26;20013;-72
2024/04/15 00:06:50;;;;;;;5.28;4.30;;;11.00;99.90;;;;;;5490185;26;20002;-73
2024/04/15 00:09:15;;;;;;;6.00;5.15;;;11.00;99.90;;;;;;5456869;26;20002;-72
2024/04/15 00:11:41;;;;;;;7.18;4.60;;;11.00;99.90;;;;;;5476702;26;20003;-72
2024/04/15 00:14:07;;;;;;;6.53;4.53;;;11.00;99.90;;;;;;5484783;26;19998;-72
2024/04/15 00:16:32;;;;;;;9.10;4.00;;;11.00;99.90;;;;;;5449417;26;20331;-72
2024/04/15 00:18:58;;;;;;;7.10;4.93;;;11.00;99.90;;;;;;5490525;26;20371;-72
2024/04/15 00:21:23;;;;;;;6.68;4.97;;;11.00;99.90;;;;;;5476454;26;20002;-72
2024/04/15 00:23:49;;;;;;;7.63;4.55;;;10.90;99.90;;;;;;5489774;26;20002;-72
2024/04/15 00:26:15;;;;;;;6.65;4.90;;;10.90;99.90;;;;;;5489911;26;20006;-73
2024/04/15 00:28:40;;;;;;;6.25;4.68;;;10.90;99.90;;;;;;5488587;26;19995;-72
2024/04/15 00:31:06;;;;;;;7.45;4.20;;;10.90;99.90;;;;;;5488067;26;20038;-72
2024/04/15 00:33:32;;;;;;;6.22;4.13;;;10.80;99.90;;;;;;5487509;26;20007;-72
2024/04/15 00:35:58;;;;;;;4.10;3.80;;;10.80;99.90;;;;;;5489043;26;20002;-73
2024/04/15 00:38:23;;;;;;;6.13;4.18;;;10.80;99.90;;;;;;5489714;26;20021;-73
2024/04/15 00:40:49;;;;;;;5.70;4.05;;;10.80;99.90;;;;;;5488632;26;20360;-73
2024/04/15 00:43:15;;;;;;;7.15;4.28;;;10.80;99.90;;;;;;5490629;26;20404;-72
2024/04/15 00:45:40;;;;;;;7.40;4.15;;;10.80;99.90;;;;;;5488417;26;20050;-72
2024/04/15 00:48:14;;;;;;;4.22;3.88;;;10.80;99.90;;;;;;5489916;26;20439;-72
2024/04/15 00:50:42;;;;;;;7.13;4.25;;;10.80;99.90;;;;;;5481644;26;20332;-73
2024/04/15 00:53:09;;;;;;;4.80;4.28;;;10.90;99.90;;;;;;5488222;26;20038;-72
2024/04/15 00:55:37;;;;;;;6.35;4.57;;;10.90;99.90;;;;;;5485309;26;20006;-72
2024/04/15 00:58:05;;;;;;;7.85;4.78;;;10.90;99.90;;;;;;5488497;26;20027;-72
2024/04/15 01:00:31;;;;;;;6.60;4.70;;;10.90;99.90;;;;;;5480749;26;20002;-72
2024/04/15 01:02:57;;;;;;;8.35;5.20;;;10.90;99.90;;;;;;5488962;26;20081;-72
2024/04/15 01:05:23;;;;;;;4.38;3.88;;;10.90;99.90;;;;;;5489522;26;20069;-72
2024/04/15 01:07:49;;;;;;;7.43;3.90;;;10.90;99.90;;;;;;5472052;26;20078;-72
2024/04/15 01:10:15;;;;;;;7.05;3.90;;;10.80;99.90;;;;;;5488018;26;20006;-72
2024/04/15 01:12:41;;;;;;;6.07;3.92;;;10.90;99.90;;;;;;5479200;26;20016;-72
2024/04/15 01:15:07;;;;;;;7.75;4.20;;;10.90;99.90;;;;;;5485920;26;20099;-72
2024/04/15 01:17:33;;;;;;;7.30;4.00;;;10.90;99.90;;;;;;5489429;26;20014;-72
2024/04/15 01:19:59;;;;;;;8.43;5.28;;;10.80;99.90;;;;;;5484068;26;20013;-72
2024/04/15 01:22:36;;;;;;;7.53;4.60;;;10.80;99.90;;;;;;5488204;26;20070;-72
2024/04/15 01:25:02;;;;;;;6.10;3.90;;;10.90;99.90;;;;;;5486045;26;20570;-72
2024/04/15 01:27:28;;;;;;;5.32;4.20;;;10.90;99.90;;;;;;5488827;26;20010;-72
2024/04/15 01:29:54;;;;;;;4.80;4.25;;;10.80;99.90;;;;;;5483142;26;20007;-73
2024/04/15 01:32:20;;;;;;;5.47;4.63;;;10.90;99.90;;;;;;5474745;26;20006;-72
2024/04/15 01:34:45;;;;;;;7.00;4.13;;;10.80;99.90;;;;;;5477609;26;20054;-72
2024/04/15 01:37:11;;;;;;;15.05;5.55;;;10.80;99.90;;;;;;5484979;26;20495;-72
2024/04/15 01:39:36;;;;;;;9.23;5.03;;;10.80;99.90;;;;;;5488841;26;20017;-72
2024/04/15 01:42:02;;;;;;;5.38;4.88;;;10.70;99.90;;;;;;5466205;26;20006;-72
2024/04/15 01:44:28;;;;;;;7.90;4.57;;;10.70;99.90;;;;;;5485230;26;20017;-72
2024/04/15 01:46:53;;;;;;;7.03;4.22;;;10.70;99.90;;;;;;5488158;26;20465;-72
2024/04/15 01:49:19;;;;;;;5.75;3.88;;;10.70;99.90;;;;;;5485715;26;20005;-72
2024/04/15 01:51:45;;;;;;;6.63;4.65;;;10.80;99.90;;;;;;5489033;26;20082;-71
2024/04/15 01:54:10;;;;;;;6.43;4.35;;;10.80;99.90;;;;;;5485016;26;20455;-72
2024/04/15 01:56:36;;;;;;;5.30;4.65;;;10.80;99.90;;;;;;5488491;26;20002;-72
2024/04/15 01:59:02;;;;;;;7.28;4.57;;;10.80;99.90;;;;;;5475707;26;20006;-72
2024/04/15 02:01:28;;;;;;;5.53;4.60;;;10.70;99.90;;;;;;5471888;26;20005;-73
2024/04/15 02:03:56;;;;;;;6.20;4.35;;;10.70;99.90;;;;;;5480338;26;19991;-72
2024/04/15 02:06:22;;;;;;;6.45;4.13;;;10.80;99.90;;;;;;5482107;26;20002;-72
2024/04/15 02:08:48;;;;;;;9.30;4.70;;;10.70;99.90;;;;;;5478765;26;20359;-72
2024/04/15 02:11:13;;;;;;;5.78;4.03;;;10.70;99.90;;;;;;5486052;26;20002;-73
2024/04/15 02:13:39;;;;;;;7.68;4.50;;;10.60;99.90;;;;;;5488488;26;20092;-72
2024/04/15 02:16:05;;;;;;;7.22;4.43;;;10.60;99.90;;;;;;5480219;26;20431;-72
2024/04/15 02:18:30;;;;;;;7.18;4.40;;;10.60;99.90;;;;;;5484204;26;20094;-72
2024/04/15 02:20:56;;;;;;;8.02;4.50;;;10.60;99.90;;;;;;5470839;26;20339;-72
2024/04/15 02:23:22;;;;;;;5.97;4.40;;;10.60;99.90;;;;;;5478266;26;20013;-72
2024/04/15 02:25:47;;;;;;;5.53;4.50;;;10.60;99.90;;;;;;5488178;26;20002;-71
2024/04/15 02:28:13;;;;;;;9.25;5.10;;;10.60;99.90;;;;;;5463881;26;20001;-72
2024/04/15 02:30:38;;;;;;;6.75;3.95;;;10.50;99.90;;;;;;5487177;26;20017;-73
2024/04/15 02:33:04;;;;;;;6.63;3.95;;;10.40;99.90;;;;;;5486939;26;20451;-71
2024/04/15 02:35:30;;;;;;;6.53;4.80;;;10.40;99.90;;;;;;5487317;26;20009;-72
2024/04/15 02:37:55;;;;;;;7.00;4.22;;;10.40;99.90;;;;;;5483011;26;20434;-72
2024/04/15 02:40:21;;;;;;;5.30;3.83;;;10.40;99.90;;;;;;5486722;26;19998;-72
2024/04/15 02:42:46;;;;;;;5.10;4.57;;;10.50;99.90;;;;;;5485332;26;20446;-72
2024/04/15 02:45:12;;;;;;;6.88;4.28;;;10.40;99.90;;;;;;5485834;26;20458;-72
2024/04/15 02:47:38;;;;;;;6.55;4.55;;;10.30;99.90;;;;;;5487430;26;20014;-72
2024/04/15 02:50:04;;;;;;;5.88;4.28;;;10.30;99.90;;;;;;5488107;26;20389;-72
2024/04/15 02:52:30;;;;;;;6.20;4.30;;;10.30;99.90;;;;;;5489160;26;20006;-73
2024/04/15 02:54:55;;;;;;;5.93;4.18;;;10.30;99.90;;;;;;5491396;26;20062;-72
2024/04/15 02:57:21;;;;;;;7.25;4.50;;;10.20;99.90;;;;;;5479971;26;20008;-72
2024/04/15 02:59:46;;;;;;;6.30;3.88;;;10.20;99.90;;;;;;5490920;26;20002;-72
2024/04/15 03:02:12;;;;;;;5.03;4.05;;;10.20;99.90;;;;;;5489052;26;20017;-73
2024/04/15 03:04:38;;;;;;;7.30;4.65;;;10.10;99.90;;;;;;5490700;26;20013;-73
2024/04/15 03:07:03;;;;;;;4.40;4.00;;;10.10;99.90;;;;;;5491899;26;20012;-72
2024/04/15 03:09:29;;;;;;;4.53;4.13;;;10.10;99.90;;;;;;5491090;26;19999;-72
2024/04/15 03:11:55;;;;;;;7.38;4.60;;;10.10;99.90;;;;;;5490776;26;19998;-72
2024/04/15 03:14:20;;;;;;;5.28;4.10;;;10.00;99.90;;;;;;5491226;26;20443;-72
2024/04/15 03:16:46;;;;;;;5.53;4.20;;;10.00;99.90;;;;;;5487357;26;20036;-72
2024/04/15 03:19:14;;;;;;;7.75;3.75;;;9.90;99.90;;;;;;5489547;26;19996;-72
2024/04/15 03:21:39;;;;;;;6.60;4.32;;;9.90;99.90;;;;;;5488318;26;20086;-72
2024/04/15 03:24:05;;;;;;;6.00;4.20;;;9.90;99.90;;;;;;5487653;26;20327;-71
2024/04/15 03:26:31;;;;;;;7.70;3.67;;;9.80;99.90;;;;;;5490861;26;20024;-72
2024/04/15 03:28:56;;;;;;;9.95;5.57;;;9.90;99.90;;;;;;5488693;26;20339;-70
2024/04/15 03:31:22;;;;;;;7.50;4.75;;;9.90;99.90;;;;;;5470457;26;20011;-72
2024/04/15 03:33:48;;;;;;;9.05;4.45;;;9.80;99.90;;;;;;5483280;26;20006;-72
2024/04/15 03:36:13;;;;;;;6.30;4.00;;;9.80;99.90;;;;;;5489302;26;20059;-72
2024/04/15 03:38:40;;;;;;;7.63;4.75;;;9.80;99.90;;;;;;5484458;26;20006;-72
2024/04/15 03:41:06;;;;;;;9.07;4.70;;;9.80;99.90;;;;;;5488853;26;20010;-73
2024/04/15 03:43:32;;;;;;;5.57;3.95;;;9.80;99.90;;;;;;5487737;26;20082;-72
2024/04/15 03:45:57;;;;;;;11.90;3.78;;;9.80;99.90;;;;;;5481248;26;19994;-71
2024/04/15 03:48:23;;;;;;;4.63;3.70;;;9.70;99.90;;;;;;5489863;26;20002;-71
2024/04/15 03:50:49;;;;;;;11.90;5.43;;;9.70;99.90;;;;;;5490157;26;20018;-72
2024/04/15 03:53:14;;;;;;;6.25;4.55;;;9.60;99.90;;;;;;5490662;26;20006;-72
2024/04/15 03:55:40;;;;;;;7.95;4.38;;;9.50;99.90;;;;;;5488409;26;20013;-72
2024/04/15 03:58:05;;;;;;;4.88;4.20;;;9.40;99.90;;;;;;5483095;26;20045;-72
2024/04/15 04:00:31;;;;;;;7.03;4.55;;;9.40;99.90;;;;;;5487582;26;20013;-72
2024/04/15 04:02:57;;;;;;;8.82;4.53;;;9.40;99.90;;;;;;5488553;26;20018;-72
2024/04/15 04:05:22;;;;;;;9.02;4.70;;;9.40;99.90;;;;;;5487053;26;20312;-72
2024/04/15 04:07:48;;;;;;;10.50;4.95;;;9.40;99.90;;;;;;5489972;26;20006;-72
2024/04/15 04:10:14;;;;;;;9.40;5.72;;;9.50;99.90;;;;;;5491207;26;19998;-72
2024/04/15 04:12:42;;;;;;;9.15;5.65;;;9.50;99.90;;;;;;5480428;26;20014;-72
2024/04/15 04:15:08;;;;;;;9.35;5.70;;;9.40;99.90;;;;;;5487397;26;20078;-72
2024/04/15 04:17:33;;;;;;;8.27;5.95;;;9.50;99.90;;;;;;5490062;26;20010;-72
2024/04/15 04:19:59;;;;;;;10.60;6.05;;;9.40;99.90;;;;;;5486635;26;20002;-72
2024/04/15 04:22:24;;;;;;;8.20;5.30;;;9.50;99.90;;;;;;5483836;26;19994;-72
2024/04/15 04:24:50;;;;;;;9.40;5.65;;;9.40;99.90;;;;;;5479089;26;20010;-72
2024/04/15 04:27:16;;;;;;;9.68;5.72;;;9.40;99.90;;;;;;5483718;26;20382;-72
2024/04/15 04:29:42;;;;;;;7.88;5.55;;;9.40;99.90;;;;;;5484418;26;20013;-72
2024/04/15 04:32:07;;;;;;;14.30;5.07;;;9.40;99.90;;;;;;5489658;26;20003;-72
2024/04/15 04:34:36;;;;;;;11.88;5.18;;;9.40;99.90;;;;;;5478099;26;20009;-72
2024/04/15 04:37:01;;;;;;;6.65;4.10;;;9.40;99.90;;;;;;5489030;26;20034;-72
2024/04/15 04:39:27;;;;;;;9.25;5.20;;;9.50;99.90;;;;;;5483640;26;20002;-72
2024/04/15 04:41:53;;;;;;;9.13;5.57;;;9.50;99.90;;;;;;5486393;26;19999;-73
2024/04/15 04:44:19;;;;;;;6.38;5.60;;;9.60;99.90;;;;;;5489117;26;20002;-72
2024/04/15 04:46:45;;;;;;;8.95;6.72;;;9.60;99.90;;;;;;5474736;26;20002;-72
2024/04/15 04:49:11;;;;;;;6.80;6.03;;;9.60;99.90;;;;;;5479578;26;20006;-73
2024/04/15 04:51:37;;;;;;;6.55;5.50;;;9.60;99.90;;;;;;5487018;26;20034;-72
2024/04/15 04:54:02;;;;;;;9.70;5.03;;;9.60;99.90;;;;;;5468977;26;19994;-71
2024/04/15 04:56:28;;;;;;;9.85;5.60;;;9.70;99.90;;;;;;5481118;26;20016;-72
2024/04/15 04:58:54;;;;;;;7.75;5.60;;;9.70;99.90;;;;;;5488212;26;20007;-72
2024/04/15 05:01:19;;;;;;;10.90;5.97;;;9.80;99.90;;;;;;5489033;26;20013;-72
2024/04/15 05:03:49;;;;;;;8.52;6.45;;;9.80;99.90;;;;;;5481692;26;20044;-72
2024/04/15 05:06:16;;;;;;;11.40;6.00;;;9.80;99.90;;;;;;5488633;26;20009;-71
2024/04/15 05:08:44;;;;;;;9.18;6.72;;;9.80;99.90;;;;;;5490420;26;20002;-72
2024/04/15 05:11:09;;;;;;;11.77;6.57;;;9.80;99.90;;;;;;5489067;26;20013;-72
2024/04/15 05:13:35;;;;;;;9.02;7.38;;;9.90;99.90;;;;;;5488617;26;20382;-72
2024/04/15 05:16:07;;;;;;;7.63;6.63;;;9.90;99.90;;;;;;5486172;26;20343;-71
2024/04/15 05:18:34;;;;;;;8.65;6.15;;;9.90;99.90;;;;;;5465352;26;20416;-72
2024/04/15 05:21:00;;;;;;;8.38;6.13;;;9.80;99.90;;;;;;5478461;26;20446;-72
2024/04/15 05:23:26;;;;;;;11.18;6.07;;;9.80;99.90;;;;;;5486573;26;20010;-72
2024/04/15 05:25:54;;;;;;;8.63;6.22;;;9.80;99.90;;;;;;5486661;26;20513;-72
2024/04/15 05:28:19;;;;;;;10.23;6.47;;;9.90;99.90;;;;;;5481892;26;20002;-71
2024/04/15 05:33:29;;;;;;;6.72;6.07;;;10.00;99.90;;;;;;5487499;26;20454;-71
2024/04/15 05:35:55;;;;;;;14.07;6.63;;;10.00;99.90;;;;;;5477420;26;20010;-70
2024/04/15 05:38:21;;;;;;;12.90;7.68;;;10.00;99.90;;;;;;5480419;26;20057;-71
2024/04/15 05:40:46;;;;;;;12.27;8.02;;;9.90;99.90;;;;;;5483482;26;20006;-72
2024/04/15 05:43:12;;;;;;;12.38;7.32;;;9.90;99.90;;;;;;5476954;26;19998;-72
2024/04/15 05:45:39;;;;;;;28.50;17.58;;;9.90;99.90;;;;;;5483920;26;20077;-70
2024/04/15 05:48:05;;;;;;;15.02;9.65;;;9.90;99.90;;;;;;5471745;26;20014;-71
2024/04/15 05:50:31;;;;;;;12.00;8.13;;;9.70;99.90;;;;;;5466327;26;20026;-72
2024/04/15 05:52:57;;;;;;;10.80;7.70;;;9.70;99.90;;;;;;5488695;26;20006;-72
2024/04/15 05:55:23;;;;;;;7.43;5.85;;;9.70;99.90;;;;;;5488800;26;20017;-72
2024/04/15 05:57:49;;;;;;;9.60;5.43;;;9.70;99.90;;;;;;5477120;26;20022;-72
2024/04/15 06:00:15;;;;;;;8.77;5.05;;;9.60;99.90;;;;;;5487992;26;20047;-72
2024/04/15 06:02:41;;;;;;;9.63;5.18;;;9.60;99.90;;;;;;5489206;26;20097;-72
2024/04/15 06:05:07;;;;;;;8.80;4.57;;;9.60;99.90;;;;;;5480142;26;20428;-72
2024/04/15 06:07:33;;;;;;;15.05;11.68;;;9.60;99.90;;;;;;5466541;26;20470;-72
2024/04/15 06:09:58;;;;;;;13.75;8.88;;;9.60;99.90;;;;;;5463434;26;20339;-72
2024/04/15 06:12:25;;;;;;;11.13;8.10;;;9.60;99.90;;;;;;5488784;26;20017;-71
2024/04/15 06:14:51;;;;;;;6.82;5.55;;;9.70;99.90;;;;;;5464449;26;20042;-72
2024/04/15 06:17:19;;;;;;;12.57;6.88;;;9.60;99.90;;;;;;5486952;26;20006;-72
2024/04/15 06:19:44;;;;;;;6.63;4.75;;;9.60;99.90;;;;;;5484850;26;20015;-71
2024/04/15 06:22:10;;;;;;;6.70;4.10;;;9.60;99.90;;;;;;5485591;26;19994;-72
2024/04/15 06:24:36;;;;;;;9.73;4.78;;;9.70;99.90;;;;;;5488179;26;20021;-72
2024/04/15 06:27:01;;;;;;;14.10;4.85;;;9.70;99.90;;;;;;5488182;26;19998;-71
2024/04/15 06:29:27;;;;;;;7.93;4.10;;;9.60;99.90;;;;;;5481847;26;20067;-72
2024/04/15 06:31:52;;;;;;;12.90;8.30;;;9.60;99.90;;;;;;5475048;26;20002;-72
2024/04/15 06:34:20;;;;;;;9.30;6.32;;;9.50;99.90;;;;;;5475030;26;20010;-72
2024/04/15 06:36:46;;;;;;;6.35;4.32;;;9.40;99.90;;;;;;5488691;26;20336;-72
2024/04/15 06:39:11;;;;;;;7.47;5.30;;;9.20;99.90;;;;;;5488113;26;19998;-72
2024/04/15 06:41:37;;;;;;;7.28;4.18;;;9.20;99.90;;;;;;5467086;26;20071;-72
2024/04/15 06:44:03;;;;;;;8.73;4.75;;;8.90;99.90;;;;;;5487315;26;20008;-72
2024/04/15 06:46:30;;;;;;;5.18;3.58;;;8.90;99.90;;;;;;5488147;26;20029;-72
2024/04/15 06:48:56;;;;;;;7.22;3.70;;;8.70;99.90;;;;;;5482126;26;20064;-70
2024/04/15 06:51:21;;;;;;;5.93;3.70;;;8.60;99.90;;;;;;5486289;26;20007;-72
2024/04/15 06:53:47;;;;;;;12.57;5.15;;;8.50;99.90;;;;;;5486239;26;20014;-72
2024/04/15 06:56:13;;;;;;;9.82;4.30;;;8.40;99.90;;;;;;5487797;26;20444;-72
2024/04/15 06:58:38;;;;;;;11.40;4.85;;;8.30;99.90;;;;;;5487734;26;20076;-71
2024/04/15 07:01:04;;;;;;;7.22;4.35;;;8.30;99.90;;;;;;5486931;26;19994;-72
2024/04/15 07:03:30;;;;;;;6.13;4.07;;;8.20;99.90;;;;;;5487174;26;20006;-72
2024/04/15 07:05:55;;;;;;;8.15;4.03;;;8.10;99.90;;;;;;5487675;26;20327;-72
2024/04/15 07:08:21;;;;;;;15.73;7.78;;;8.10;99.90;;;;;;5485827;26;20427;-71
2024/04/15 07:10:46;;;;;;;12.50;5.78;;;8.10;99.90;;;;;;5477579;26;20007;-70
2024/04/15 07:13:12;;;;;;;5.35;3.22;;;8.00;99.90;;;;;;5470059;26;20020;-71
2024/04/15 07:15:38;;;;;;;5.20;3.17;;;8.10;99.90;;;;;;5472094;26;20006;-71
2024/04/15 07:18:04;;;;;;;8.15;3.72;;;8.20;99.90;;;;;;5462084;26;20002;-71
2024/04/15 07:20:29;;;;;;;4.07;2.92;;;8.20;99.90;;;;;;5469402;26;20078;-71
2024/04/15 07:22:56;;;;;;;7.45;3.72;;;8.20;99.90;;;;;;5484074;26;20067;-71
2024/04/15 07:25:21;;;;;;;6.75;2.97;;;8.00;99.90;;;;;;5467104;26;20472;-71
2024/04/15 07:27:47;;;;;;;4.60;2.95;;;7.90;99.90;;;;;;5462206;26;20022;-71
2024/04/15 07:30:12;;;;;;;6.57;3.20;;;7.90;99.90;;;;;;5482113;26;20436;-71
2024/04/15 07:32:38;;;;;;;7.80;3.55;;;8.00;99.90;;;;;;5460676;26;20451;-71
2024/04/15 07:35:05;;;;;;;6.35;3.10;;;8.00;99.90;;;;;;5455781;26;20197;-71
2024/04/15 07:37:30;;;;;;;8.63;4.47;;;8.00;99.90;;;;;;5482732;26;20396;-71
2024/04/15 07:39:56;;;;;;;6.70;3.95;;;8.00;99.90;;;;;;5462656;26;20006;-71
2024/04/15 07:42:22;;;;;;;8.00;3.38;;;8.00;99.90;;;;;;5469625;26;20019;-71
2024/04/15 07:44:48;;;;;;;9.43;4.20;;;8.00;99.90;;;;;;5479041;26;21617;-72
2024/04/15 07:47:14;;;;;;;5.82;2.90;;;8.10;99.90;;;;;;5470419;26;20066;-72
2024/04/15 07:49:40;;;;;;;4.72;3.10;;;8.10;99.90;;;;;;5478616;26;20557;-72
2024/04/15 07:52:06;;;;;;;7.70;3.50;;;8.10;99.90;;;;;;5490669;26;19998;-72
2024/04/15 07:54:32;;;;;;;11.30;5.03;;;8.00;99.90;;;;;;5489919;26;20058;-71
2024/04/15 07:56:58;;;;;;;5.90;2.90;;;8.00;99.90;;;;;;5485162;26;20009;-71
2024/04/15 07:59:23;;;;;;;3.55;2.38;;;8.00;99.90;;;;;;5475519;26;20010;-72
2024/04/15 08:01:49;;;;;;;8.95;3.08;;;8.00;99.90;;;;;;5458066;26;20018;-71
2024/04/15 08:04:15;;;;;;;5.80;3.17;;;8.10;99.90;;;;;;5453200;26;20459;-72
2024/04/15 08:06:41;;;;;;;7.63;4.78;;;8.00;99.90;;;;;;5486619;26;20082;-72
2024/04/15 08:09:07;;;;;;;4.63;2.97;;;8.10;99.90;;;;;;5480630;26;20451;-71
2024/04/15 08:39:59;;;;;;;5.03;2.60;;;9.40;99.90;;;;;;5482485;26;20070;-72
2024/04/15 08:43:01;;;;;;;7.63;2.83;;;9.60;99.90;;;;;;5457986;26;20021;-71
2024/04/15 08:45:27;;;;;;;5.45;2.67;;;9.70;99.90;;;;;;5424861;26;20340;-71
2024/04/15 08:47:55;;;;;;;4.32;2.72;;;9.60;99.90;;;;;;5462329;26;20324;-70
2024/04/15 08:50:22;;;;;;;6.38;3.00;;;9.60;99.90;;;;;;5485587;26;20075;-72
2024/04/15 08:52:55;;;;;;;5.40;2.15;;;9.70;99.90;;;;;;5476896;26;20011;-71
2024/04/15 08:55:23;;;;;;;3.63;2.28;;;9.50;99.90;;;;;;5486895;26;20002;-71
2024/04/15 08:57:49;;;;;;;6.38;2.28;;;9.40;99.90;;;;;;5479688;26;20004;-71
2024/04/15 09:00:18;;;;;;;3.70;1.75;;;9.40;99.90;;;;;;5476914;26;20874;-70
2024/04/15 09:02:45;;;;;;;3.55;2.20;;;9.60;99.90;;;;;;5484934;26;20017;-71
2024/04/15 09:05:11;;;;;;;5.30;1.92;;;9.60;99.90;;;;;;5486227;26;20010;-71
2024/04/15 09:07:37;;;;;;;3.65;1.55;;;9.50;99.90;;;;;;5444146;26;20009;-71
2024/04/15 09:10:02;;;;;;;5.25;2.42;;;9.40;99.90;;;;;;5457010;26;20009;-71
2024/04/15 09:12:36;;;;;;;6.03;2.45;;;9.40;99.90;;;;;;5482491;26;20014;-71
2024/04/15 09:15:02;;;;;;;4.38;2.45;;;9.40;99.90;;;;;;5479728;26;20009;-71
2024/04/15 09:17:29;;;;;;;5.50;2.25;;;9.30;99.90;;;;;;5488880;26;20010;-71
2024/04/15 09:19:57;;;;;;;5.93;2.15;;;9.30;99.90;;;;;;5457305;26;20070;-71
2024/04/15 09:22:29;;;;;;;9.35;2.60;;;9.40;99.90;;;;;;5486451;26;20071;-71
2024/04/15 09:24:55;;;;;;;5.50;3.30;;;9.40;99.90;;;;;;5489820;26;20014;-71
2024/04/15 09:27:24;;;;;;;3.33;1.98;;;9.40;99.90;;;;;;5488025;26;20099;-70
2024/04/15 09:29:50;;;;;;;5.05;2.30;;;9.30;99.90;;;;;;5456783;26;20076;-70
2024/04/15 09:32:17;;;;;;;7.20;2.10;;;9.50;99.90;;;;;;5486165;26;20891;-71
2024/04/15 09:34:43;;;;;;;3.28;2.47;;;9.50;99.90;;;;;;5473473;26;20005;-72
2024/04/15 09:37:09;;;;;;;4.10;2.20;;;9.50;99.90;;;;;;5482242;26;20029;-71
2024/04/15 09:39:36;;;;;;;7.45;2.63;;;9.60;99.90;;;;;;5470917;26;20343;-71
2024/04/15 09:42:02;;;;;;;6.10;2.63;;;9.80;99.90;;;;;;5482869;26;20327;-71
2024/04/15 09:44:29;;;;;;;5.10;2.15;;;9.70;99.90;;;;;;5488900;26;20010;-71
2024/04/15 09:46:55;;;;;;;4.70;2.47;;;9.80;99.90;;;;;;5487070;26;20347;-72
2024/04/15 09:49:21;;;;;;;4.20;1.95;;;9.80;99.30;;;;;;5478092;26;20076;-71
2024/04/15 09:51:51;;;;;;;4.35;1.95;;;9.70;99.60;;;;;;5481841;26;20010;-71
2024/04/15 09:54:22;;;;;;;5.40;2.13;;;9.70;99.90;;;;;;5486366;26;20006;-71
2024/04/15 09:56:50;;;;;;;7.75;2.30;;;9.80;99.90;;;;;;5487952;26;20003;-71
2024/04/15 09:59:16;;;;;;;4.82;2.03;;;9.80;99.90;;;;;;5486949;26;20425;-71
2024/04/15 10:01:43;;;;;;;5.90;2.83;;;9.80;99.90;;;;;;5483228;26;19994;-71
2024/04/15 10:04:33;;;;;;;5.45;2.38;;;9.80;99.90;;;;;;5466666;26;20002;-71
2024/04/15 10:07:03;;;;;;;2.40;2.20;;;9.70;99.90;;;;;;5486488;26;20006;-71
2024/04/15 10:09:30;;;;;;;3.35;2.05;;;9.70;99.90;;;;;;5476164;26;20014;-71
2024/04/15 10:11:57;;;;;;;3.60;2.45;;;9.70;99.90;;;;;;5469469;26;19998;-71
2024/04/15 10:14:23;;;;;;;5.10;1.90;;;9.70;99.90;;;;;;5473333;26;20002;-71
2024/04/15 10:16:49;;;;;;;6.00;2.00;;;9.60;99.90;;;;;;5465066;26;20164;-70
2024/04/15 10:19:24;;;;;;;4.35;2.30;;;9.70;99.90;;;;;;5465005;26;20002;-70
2024/04/15 10:21:50;;;;;;;4.78;2.05;;;9.80;99.90;;;;;;5474640;26;20006;-71
2024/04/15 10:24:16;;;;;;;6.50;2.38;;;9.50;99.90;;;;;;5484497;26;20013;-69
2024/04/15 10:26:42;;;;;;;8.05;2.03;;;9.70;99.90;;;;;;5476184;26;20048;-69
2024/04/15 10:29:23;;;;;;;4.00;2.38;;;9.80;99.90;;;;;;5467463;26;20021;-70
2024/04/15 10:31:54;;;;;;;5.75;2.45;;;10.10;99.90;;;;;;5483962;26;20047;-70
2024/04/15 10:34:25;;;;;;;10.18;2.63;;;10.20;99.90;;;;;;5465858;26;19995;-71
2024/04/15 10:36:52;;;;;;;5.05;2.47;;;10.40;99.90;;;;;;5479463;26;20078;-72
2024/04/15 10:39:20;;;;;;;3.67;2.33;;;10.50;99.90;;;;;;5471315;26;20347;-72
2024/04/15 10:41:47;;;;;;;5.72;2.40;;;10.50;93.10;;;;;;5469068;26;20016;-71
2024/04/15 10:44:13;;;;;;;7.72;2.63;;;10.50;93.10;;;;;;5482128;26;20066;-72
2024/04/15 10:46:45;;;;;;;6.35;2.67;;;10.50;95.20;;;;;;5476633;26;20020;-72
2024/04/15 10:49:11;;;;;;;5.82;2.38;;;10.50;96.90;;;;;;5486135;26;19998;-72
2024/04/15 10:51:37;;;;;;;5.80;2.50;;;10.50;96.80;;;;;;5480351;26;20331;-72
2024/04/15 10:54:04;;;;;;;5.57;2.33;;;10.60;95.80;;;;;;5483798;26;20074;-71
2024/04/15 10:56:31;;;;;;;7.55;3.10;;;10.50;94.40;;;;;;5485616;26;20002;-71
2024/04/15 10:58:56;;;;;;;5.63;2.25;;;10.50;92.90;;;;;;5474809;26;20067;-71
2024/04/15 11:01:22;;;;;;;5.20;2.03;;;10.30;87.30;;;;;;5475227;26;20831;-71
2024/04/15 11:03:50;;;;;;;8.68;2.10;;;10.40;87.80;;;;;;5484054;26;20006;-75
2024/04/15 11:06:19;;;;;;;4.90;2.33;;;10.40;90.20;;;;;;5482485;26;20001;-72
2024/04/15 11:08:45;;;;;;;6.35;2.25;;;10.40;88.60;;;;;;5467216;26;20060;-72
2024/04/15 11:11:12;;;;;;;7.72;2.28;;;10.50;87.60;;;;;;5479516;26;20010;-72
2024/04/15 11:13:41;;;;;;;9.82;3.15;;;10.50;88.60;;;;;;5476371;26;19994;-72
2024/04/15 11:16:13;;;;;;;7.35;2.10;;;10.50;87.40;;;;;;5489033;26;20009;-72
2024/04/15 11:18:38;;;;;;;5.90;2.65;;;10.50;88.90;;;;;;5488018;26;20013;-72
2024/04/15 11:21:06;;;;;;;2.65;1.83;;;10.60;87.70;;;;;;5487185;26;20010;-72
2024/04/15 11:23:33;;;;;;;6.88;2.40;;;10.70;88.50;;;;;;5479042;26;20678;-71
2024/04/15 11:26:01;;;;;;;7.50;2.90;;;10.70;87.70;;;;;;5486009;26;20002;-71
2024/04/15 11:28:28;;;;;;;7.43;2.70;;;10.80;88.30;;;;;;5489299;26;20006;-73
2024/04/15 11:30:58;;;;;;;7.88;2.38;;;10.80;88.10;;;;;;5487222;26;20047;-71
2024/04/15 11:33:26;;;;;;;7.40;2.50;;;10.90;90.10;;;;;;5489644;26;20081;-72
2024/04/15 11:35:53;;;;;;;5.50;2.30;;;11.00;90.10;;;;;;5485405;26;20432;-71
2024/04/15 11:38:21;;;;;;;4.28;2.58;;;11.10;87.30;;;;;;5482083;26;20018;-70
2024/04/15 11:40:48;;;;;;;5.28;3.25;;;11.20;87.40;;;;;;5472202;26;20462;-71
2024/04/15 11:43:14;;;;;;;4.28;2.53;;;11.20;86.40;;;;;;5483157;26;20009;-71
2024/04/15 11:45:53;;;;;;;4.95;2.60;;;11.40;85.20;;;;;;5490376;26;20017;-72
2024/04/15 11:48:21;;;;;;;5.45;2.67;;;11.50;82.70;;;;;;5488809;26;20046;-71
2024/04/15 11:50:50;;;;;;;4.95;2.05;;;11.70;81.20;;;;;;5474156;26;20404;-72
2024/04/15 11:53:20;;;;;;;4.93;2.53;;;11.70;81.10;;;;;;5479167;26;20042;-71
2024/04/15 11:55:46;;;;;;;8.48;2.63;;;11.80;81.50;;;;;;5491021;26;20030;-71
2024/04/15 11:58:12;;;;;;;5.03;2.42;;;12.00;83.50;;;;;;5489025;26;20011;-71
2024/04/15 12:00:38;;;;;;;5.70;3.13;;;12.10;83.20;;;;;;5488207;26;20018;-73
2024/04/15 12:03:04;;;;;;;5.85;3.15;;;12.10;80.80;;;;;;5480753;26;20006;-72
2024/04/15 12:05:29;;;;;;;4.57;2.55;;;12.20;80.90;;;;;;5490768;26;20041;-73
2024/04/15 12:07:56;;;;;;;6.57;2.65;;;12.30;81.80;;;;;;5490058;26;20467;-71
2024/04/15 12:10:22;;;;;;;6.30;2.25;;;12.40;80.70;;;;;;5490461;26;20013;-71
2024/04/15 12:12:47;;;;;;;6.15;2.60;;;12.40;80.80;;;;;;5489516;26;20006;-72
2024/04/15 12:15:13;;;;;;;6.35;2.50;;;12.50;80.20;;;;;;5489972;26;20017;-72
2024/04/15 12:17:39;;;;;;;5.45;2.80;;;12.50;78.80;;;;;;5470185;26;20079;-72
2024/04/15 12:20:06;;;;;;;5.68;2.72;;;12.40;80.60;;;;;;5485362;26;20010;-73
2024/04/15 12:22:32;;;;;;;8.63;3.13;;;12.50;82.90;;;;;;5481649;26;20328;-73
2024/04/15 12:24:58;;;;;;;4.75;3.13;;;12.40;81.60;;;;;;5472354;26;20038;-72
2024/04/15 12:27:29;;;;;;;6.82;3.63;;;12.40;80.80;;;;;;5489507;26;20018;-72
2024/04/15 12:29:55;;;;;;;5.60;3.00;;;12.20;79.10;;;;;;5469204;26;20003;-71
2024/04/15 12:32:21;;;;;;;5.90;2.88;;;12.20;79.80;;;;;;5474077;26;20231;-71
2024/04/15 12:34:47;;;;;;;6.80;3.25;;;12.10;83.30;;;;;;5487851;26;20017;-72
2024/04/15 12:37:12;;;;;;;7.93;3.28;;;12.10;81.50;;;;;;5489722;26;19998;-72
2024/04/15 12:39:40;;;;;;;6.13;3.08;;;12.10;83.20;;;;;;5473073;26;20075;-72
2024/04/15 12:42:06;;;;;;;4.13;3.30;;;12.10;83.40;;;;;;5472079;26;20005;-72
2024/04/15 12:44:31;;;;;;;5.57;2.95;;;12.00;84.00;;;;;;5470959;26;19994;-72
2024/04/15 12:47:04;;;;;;;5.20;3.17;;;12.00;82.70;;;;;;5473836;26;20010;-72
2024/04/15 12:49:29;;;;;;;6.43;3.00;;;12.00;81.50;;;;;;5476389;26;19998;-72
2024/04/15 12:51:55;;;;;;;5.63;3.15;;;12.10;83.40;;;;;;5480528;26;20030;-72
2024/04/15 12:54:21;;;;;;;5.85;3.88;;;12.00;83.70;;;;;;5472940;26;20440;-72
2024/04/15 12:56:47;;;;;;;6.07;3.50;;;12.00;84.20;;;;;;5487210;26;20334;-72
2024/04/15 12:59:12;;;;;;;4.57;3.00;;;12.00;84.20;;;;;;5488386;26;20435;-72
2024/04/15 13:01:38;;;;;;;5.63;3.22;;;12.00;84.90;;;;;;5485025;26;20392;-73
2024/04/15 13:04:04;;;;;;;6.10;4.13;;;11.90;84.10;;;;;;5468825;26;20066;-71
2024/04/15 13:06:30;;;;;;;6.45;3.20;;;11.90;85.30;;;;;;5483588;26;19994;-72
2024/04/15 13:08:56;;;;;;;3.85;3.33;;;11.80;85.90;;;;;;5489276;26;20002;-73
2024/04/15 13:11:22;;;;;;;6.38;3.42;;;11.80;85.60;;;;;;5487585;26;20021;-71
2024/04/15 13:13:48;;;;;;;7.68;3.58;;;11.80;85.80;;;;;;5487447;26;20002;-72
2024/04/15 13:16:14;;;;;;;9.18;3.38;;;11.70;87.00;;;;;;5489512;26;20327;-73
2024/04/15 13:18:39;;;;;;;5.93;3.00;;;11.70;89.50;;;;;;5488263;26;19998;-72